YPPF weather

Adelaide Parafield Airport
Adelaide, South Australia, Australia

Public forecast

Using degrees Celsius for public forecast. Weather courtesy of forecast.io.

METAR (pilot weather report)

Closest report is Adelaide International Airport, 10.4 nm (19.3 km) SSW. Retrieved 2017/12/10 22:30 UTC (18 minutes ago):

YPAD 102230Z 02002KT CAVOK 21/10 Q1021 FM0030 22012KT CAVOK

TAF (pilot weather forecast)

Closest forecast is Adelaide International Airport, 10.4 nm (19.3 km) SSW. Retrieved 2017/12/10 18:00 UTC (5 hours ago):

TAF YPAD 101648Z 1018/1124 VRB05KT CAVOK FM110000 22012KT CAVOK FM110900 14010KT CAVOK FM111800 05006KT CAVOK